sensor_id;sensor_type;location;lat;lon;timestamp;pressure;altitude;pressure_sealevel;temperature
64600;BMP280;6553;48.412;9.514;2023-09-18T00:02:21;72130.19;;;24.23
64600;BMP280;6553;48.412;9.514;2023-09-18T00:04:47;72132.47;;;24.23
64600;BMP280;6553;48.412;9.514;2023-09-18T00:07:13;72130.19;;;24.23
64600;BMP280;6553;48.412;9.514;2023-09-18T00:09:40;72135.78;;;24.23
64600;BMP280;6553;48.412;9.514;2023-09-18T00:12:06;72130.88;;;24.21
64600;BMP280;6553;48.412;9.514;2023-09-18T00:14:32;72131.38;;;24.22
64600;BMP280;6553;48.412;9.514;2023-09-18T00:16:58;72129.78;;;24.20
64600;BMP280;6553;48.412;9.514;2023-09-18T00:19:24;72132.97;;;24.23
64600;BMP280;6553;48.412;9.514;2023-09-18T00:21:50;72131.91;;;24.22
64600;BMP280;6553;48.412;9.514;2023-09-18T00:24:18;72131.38;;;24.22
64600;BMP280;6553;48.412;9.514;2023-09-18T00:26:43;72132.47;;;24.23
64600;BMP280;6553;48.412;9.514;2023-09-18T00:29:11;72134.19;;;24.22
64600;BMP280;6553;48.412;9.514;2023-09-18T00:31:37;72127.41;;;24.23
64600;BMP280;6553;48.412;9.514;2023-09-18T00:34:02;72129.28;;;24.20
64600;BMP280;6553;48.412;9.514;2023-09-18T00:36:28;72135.38;;;24.20
64600;BMP280;6553;48.412;9.514;2023-09-18T00:38:54;72123.28;;;24.17
64600;BMP280;6553;48.412;9.514;2023-09-18T00:41:19;72133.66;;;24.21
64600;BMP280;6553;48.412;9.514;2023-09-18T00:43:45;72128.75;;;24.19
64600;BMP280;6553;48.412;9.514;2023-09-18T00:46:11;72133.13;;;24.21
64600;BMP280;6553;48.412;9.514;2023-09-18T00:48:39;72128.59;;;24.22
64600;BMP280;6553;48.412;9.514;2023-09-18T00:51:05;72122.63;;;24.19
64600;BMP280;6553;48.412;9.514;2023-09-18T00:53:31;72128.75;;;24.19
64600;BMP280;6553;48.412;9.514;2023-09-18T00:56:00;72133.13;;;24.21
64600;BMP280;6553;48.412;9.514;2023-09-18T00:58:26;72125.94;;;24.19
64600;BMP280;6553;48.412;9.514;2023-09-18T01:00:52;72130.31;;;24.21
64600;BMP280;6553;48.412;9.514;2023-09-18T01:03:20;72130.88;;;24.21
64600;BMP280;6553;48.412;9.514;2023-09-18T01:05:46;72133.13;;;24.21
64600;BMP280;6553;48.412;9.514;2023-09-18T01:08:12;72128.75;;;24.19
64600;BMP280;6553;48.412;9.514;2023-09-18T01:11:13;72128.75;;;24.19
64600;BMP280;6553;48.412;9.514;2023-09-18T01:13:50;72130.31;;;24.21
64600;BMP280;6553;48.412;9.514;2023-09-18T01:16:39;72130.31;;;24.21
64600;BMP280;6553;48.412;9.514;2023-09-18T01:19:09;72124.88;;;24.18
64600;BMP280;6553;48.412;9.514;2023-09-18T01:21:35;72128.75;;;24.19
64600;BMP280;6553;48.412;9.514;2023-09-18T01:24:01;72123.44;;;24.14
64600;BMP280;6553;48.412;9.514;2023-09-18T01:26:26;72127.81;;;24.16
64600;BMP280;6553;48.412;9.514;2023-09-18T01:28:52;72126.06;;;24.17
64600;BMP280;6553;48.412;9.514;2023-09-18T01:31:18;72131.09;;;24.16
64600;BMP280;6553;48.412;9.514;2023-09-18T01:33:45;72119.03;;;24.13
64600;BMP280;6553;48.412;9.514;2023-09-18T01:36:14;72127.66;;;24.18
64600;BMP280;6553;48.412;9.514;2023-09-18T01:38:42;72125.53;;;24.16
64600;BMP280;6553;48.412;9.514;2023-09-18T01:41:08;72123.81;;;24.17
64600;BMP280;6553;48.412;9.514;2023-09-18T01:43:34;72128.19;;;24.19
64600;BMP280;6553;48.412;9.514;2023-09-18T01:46:01;72131.53;;;24.19
64600;BMP280;6553;48.412;9.514;2023-09-18T01:48:28;72125.41;;;24.19
64600;BMP280;6553;48.412;9.514;2023-09-18T01:50:54;72125.13;;;24.13
64600;BMP280;6553;48.412;9.514;2023-09-18T01:53:20;72126.06;;;24.17
64600;BMP280;6553;48.412;9.514;2023-09-18T01:55:45;72127.66;;;24.18
64600;BMP280;6553;48.412;9.514;2023-09-18T01:58:13;72121.03;;;24.17
64600;BMP280;6553;48.412;9.514;2023-09-18T02:00:40;72122.09;;;24.18
64600;BMP280;6553;48.412;9.514;2023-09-18T02:03:06;72122.63;;;24.19
64600;BMP280;6553;48.412;9.514;2023-09-18T02:05:31;72123.94;;;24.15
64600;BMP280;6553;48.412;9.514;2023-09-18T02:07:58;72128.31;;;24.16
64600;BMP280;6553;48.412;9.514;2023-09-18T02:10:23;72125.00;;;24.16
64600;BMP280;6553;48.412;9.514;2023-09-18T02:12:49;72123.44;;;24.14
64600;BMP280;6553;48.412;9.514;2023-09-18T02:15:15;72128.31;;;24.16
64600;BMP280;6553;48.412;9.514;2023-09-18T02:17:42;72126.06;;;24.17
64600;BMP280;6553;48.412;9.514;2023-09-18T02:20:09;72130.59;;;24.16
64600;BMP280;6553;48.412;9.514;2023-09-18T02:22:37;72129.50;;;24.15
64600;BMP280;6553;48.412;9.514;2023-09-18T02:25:06;72125.53;;;24.16
64600;BMP280;6553;48.412;9.514;2023-09-18T02:27:32;72127.81;;;24.16
64600;BMP280;6553;48.412;9.514;2023-09-18T02:29:58;72122.34;;;24.13
64600;BMP280;6553;48.412;9.514;2023-09-18T02:32:24;72126.22;;;24.14
64600;BMP280;6553;48.412;9.514;2023-09-18T02:34:50;72119.03;;;24.13
64600;BMP280;6553;48.412;9.514;2023-09-18T02:37:15;72122.34;;;24.13
64600;BMP280;6553;48.412;9.514;2023-09-18T02:39:41;72116.78;;;24.13
64600;BMP280;6553;48.412;9.514;2023-09-18T02:42:07;72126.72;;;24.15
64600;BMP280;6553;48.412;9.514;2023-09-18T02:44:33;72121.69;;;24.15
64600;BMP280;6553;48.412;9.514;2023-09-18T02:46:58;72122.22;;;24.16
64600;BMP280;6553;48.412;9.514;2023-09-18T02:49:24;72123.44;;;24.14
64600;BMP280;6553;48.412;9.514;2023-09-18T02:51:50;72119.56;;;24.13
64600;BMP280;6553;48.412;9.514;2023-09-18T02:54:16;72124.09;;;24.12
64600;BMP280;6553;48.412;9.514;2023-09-18T02:56:42;72123.94;;;24.15
64600;BMP280;6553;48.412;9.514;2023-09-18T02:59:08;72125.13;;;24.13
64600;BMP280;6553;48.412;9.514;2023-09-18T03:01:34;72123.44;;;24.14
64600;BMP280;6553;48.412;9.514;2023-09-18T03:04:00;72123.94;;;24.15
64600;BMP280;6553;48.412;9.514;2023-09-18T03:06:26;72120.09;;;24.14
64600;BMP280;6553;48.412;9.514;2023-09-18T03:08:52;72124.63;;;24.13
64600;BMP280;6553;48.412;9.514;2023-09-18T03:11:18;72121.28;;;24.12
64600;BMP280;6553;48.412;9.514;2023-09-18T03:13:46;72123.94;;;24.15
64600;BMP280;6553;48.412;9.514;2023-09-18T03:16:14;72120.63;;;24.14
64600;BMP280;6553;48.412;9.514;2023-09-18T03:18:40;72120.22;;;24.11
64600;BMP280;6553;48.412;9.514;2023-09-18T03:21:06;72116.25;;;24.13
64600;BMP280;6553;48.412;9.514;2023-09-18T03:23:32;72122.34;;;24.13
64600;BMP280;6553;48.412;9.514;2023-09-18T03:25:58;72121.28;;;24.12
64600;BMP280;6553;48.412;9.514;2023-09-18T03:28:26;72124.63;;;24.13
64600;BMP280;6553;48.412;9.514;2023-09-18T03:30:52;72127.94;;;24.13
64600;BMP280;6553;48.412;9.514;2023-09-18T03:33:21;72122.34;;;24.13
64600;BMP280;6553;48.412;9.514;2023-09-18T03:35:49;72119.56;;;24.13
64600;BMP280;6553;48.412;9.514;2023-09-18T03:38:17;72121.28;;;24.12
64600;BMP280;6553;48.412;9.514;2023-09-18T03:40:43;72118.50;;;24.12
64600;BMP280;6553;48.412;9.514;2023-09-18T03:43:11;72119.03;;;24.13
64600;BMP280;6553;48.412;9.514;2023-09-18T03:45:38;72119.56;;;24.13
64600;BMP280;6553;48.412;9.514;2023-09-18T03:48:07;72126.22;;;24.14
64600;BMP280;6553;48.412;9.514;2023-09-18T03:50:33;72124.63;;;24.13
64600;BMP280;6553;48.412;9.514;2023-09-18T03:52:59;72126.88;;;24.12
64600;BMP280;6553;48.412;9.514;2023-09-18T03:55:25;72117.44;;;24.11
64600;BMP280;6553;48.412;9.514;2023-09-18T03:57:52;72120.22;;;24.11
64600;BMP280;6553;48.412;9.514;2023-09-18T04:00:18;72115.72;;;24.12
64600;BMP280;6553;48.412;9.514;2023-09-18T04:02:44;72119.69;;;24.11
64600;BMP280;6553;48.412;9.514;2023-09-18T04:05:10;72116.38;;;24.10
64600;BMP280;6553;48.412;9.514;2023-09-18T04:07:35;72118.63;;;24.10
64600;BMP280;6553;48.412;9.514;2023-09-18T04:10:01;72119.69;;;24.11
64600;BMP280;6553;48.412;9.514;2023-09-18T04:12:28;72115.97;;;24.07
64600;BMP280;6553;48.412;9.514;2023-09-18T04:14:54;72113.19;;;24.07
64600;BMP280;6553;48.412;9.514;2023-09-18T04:17:21;72114.78;;;24.09
64600;BMP280;6553;48.412;9.514;2023-09-18T04:19:47;72113.72;;;24.08
64600;BMP280;6553;48.412;9.514;2023-09-18T04:22:13;72120.88;;;24.09
64600;BMP280;6553;48.412;9.514;2023-09-18T04:24:39;72117.03;;;24.08
64600;BMP280;6553;48.412;9.514;2023-09-18T04:27:06;72118.09;;;24.09
64600;BMP280;6553;48.412;9.514;2023-09-18T04:29:32;72118.75;;;24.07
64600;BMP280;6553;48.412;9.514;2023-09-18T04:31:58;72113.72;;;24.08
64600;BMP280;6553;48.412;9.514;2023-09-18T04:34:24;72120.88;;;24.09
64600;BMP280;6553;48.412;9.514;2023-09-18T04:36:50;72118.09;;;24.09
64600;BMP280;6553;48.412;9.514;2023-09-18T04:39:16;72119.81;;;24.08
64600;BMP280;6553;48.412;9.514;2023-09-18T04:41:42;72118.22;;;24.07
64600;BMP280;6553;48.412;9.514;2023-09-18T04:44:08;72110.91;;;24.08
64600;BMP280;6553;48.412;9.514;2023-09-18T04:46:36;72118.09;;;24.09
64600;BMP280;6553;48.412;9.514;2023-09-18T04:49:02;72114.25;;;24.08
64600;BMP280;6553;48.412;9.514;2023-09-18T04:51:31;72118.09;;;24.09
64600;BMP280;6553;48.412;9.514;2023-09-18T04:53:58;72116.50;;;24.08
64600;BMP280;6553;48.412;9.514;2023-09-18T04:56:25;72117.03;;;24.08
64600;BMP280;6553;48.412;9.514;2023-09-18T04:58:52;72116.09;;;24.05
64600;BMP280;6553;48.412;9.514;2023-09-18T05:01:17;72121.56;;;24.07
64600;BMP280;6553;48.412;9.514;2023-09-18T05:03:44;72111.06;;;24.05
64600;BMP280;6553;48.412;9.514;2023-09-18T05:06:10;72117.69;;;24.06
64600;BMP280;6553;48.412;9.514;2023-09-18T05:08:36;72119.94;;;24.06
64600;BMP280;6553;48.412;9.514;2023-09-18T05:11:02;72117.03;;;24.08
64600;BMP280;6553;48.412;9.514;2023-09-18T05:13:28;72114.50;;;24.03
64600;BMP280;6553;48.412;9.514;2023-09-18T05:15:53;72115.44;;;24.07
64600;BMP280;6553;48.412;9.514;2023-09-18T05:18:19;72115.44;;;24.07
64600;BMP280;6553;48.412;9.514;2023-09-18T05:20:45;72114.78;;;24.09
64600;BMP280;6553;48.412;9.514;2023-09-18T05:23:11;72119.94;;;24.06
64600;BMP280;6553;48.412;9.514;2023-09-18T05:25:37;72115.97;;;24.07
64600;BMP280;6553;48.412;9.514;2023-09-18T05:28:04;72114.91;;;24.06
64600;BMP280;6553;48.412;9.514;2023-09-18T05:30:34;72115.44;;;24.07
64600;BMP280;6553;48.412;9.514;2023-09-18T05:33:02;72119.28;;;24.08
64600;BMP280;6553;48.412;9.514;2023-09-18T05:35:44;72115.97;;;24.07
64600;BMP280;6553;48.412;9.514;2023-09-18T05:38:12;72116.50;;;24.08
64600;BMP280;6553;48.412;9.514;2023-09-18T05:40:43;72117.56;;;24.09
64600;BMP280;6553;48.412;9.514;2023-09-18T05:43:10;72117.56;;;24.09
64600;BMP280;6553;48.412;9.514;2023-09-18T05:45:37;72116.50;;;24.08
64600;BMP280;6553;48.412;9.514;2023-09-18T05:48:04;72117.03;;;24.08
64600;BMP280;6553;48.412;9.514;2023-09-18T05:50:35;72119.81;;;24.08
64600;BMP280;6553;48.412;9.514;2023-09-18T05:53:04;72117.56;;;24.09
64600;BMP280;6553;48.412;9.514;2023-09-18T05:55:31;72118.09;;;24.09
64600;BMP280;6553;48.412;9.514;2023-09-18T05:57:57;72114.91;;;24.06
64600;BMP280;6553;48.412;9.514;2023-09-18T06:00:23;72115.44;;;24.07
64600;BMP280;6553;48.412;9.514;2023-09-18T06:02:50;72120.88;;;24.09
64600;BMP280;6553;48.412;9.514;2023-09-18T06:05:17;72119.69;;;24.11
64600;BMP280;6553;48.412;9.514;2023-09-18T06:07:49;72124.19;;;24.10
64600;BMP280;6553;48.412;9.514;2023-09-18T06:10:15;72117.56;;;24.09
64600;BMP280;6553;48.412;9.514;2023-09-18T06:12:42;72102.97;;;24.00
64600;BMP280;6553;48.412;9.514;2023-09-18T06:15:08;72118.63;;;24.10
64600;BMP280;6553;48.412;9.514;2023-09-18T06:17:41;72117.44;;;24.11
64600;BMP280;6553;48.412;9.514;2023-09-18T06:20:11;72115.97;;;24.07
64600;BMP280;6553;48.412;9.514;2023-09-18T06:22:41;72120.22;;;24.11
64600;BMP280;6553;48.412;9.514;2023-09-18T06:25:08;72119.81;;;24.08
64600;BMP280;6553;48.412;9.514;2023-09-18T06:27:38;72114.78;;;24.09
64600;BMP280;6553;48.412;9.514;2023-09-18T06:30:08;72119.69;;;24.11
64600;BMP280;6553;48.412;9.514;2023-09-18T06:32:34;72123.00;;;24.11
64600;BMP280;6553;48.412;9.514;2023-09-18T06:35:00;72124.75;;;24.10
64600;BMP280;6553;48.412;9.514;2023-09-18T06:37:26;72119.69;;;24.11
64600;BMP280;6553;48.412;9.514;2023-09-18T06:39:52;72120.34;;;24.09
64600;BMP280;6553;48.412;9.514;2023-09-18T06:42:18;72117.56;;;24.09
64600;BMP280;6553;48.412;9.514;2023-09-18T06:44:44;72114.25;;;24.08
64600;BMP280;6553;48.412;9.514;2023-09-18T06:47:10;72117.97;;;24.12
64600;BMP280;6553;48.412;9.514;2023-09-18T06:49:36;72123.00;;;24.11
64600;BMP280;6553;48.412;9.514;2023-09-18T06:52:02;72113.59;;;24.10
64600;BMP280;6553;48.412;9.514;2023-09-18T06:54:28;72119.69;;;24.11
64600;BMP280;6553;48.412;9.514;2023-09-18T06:56:53;72124.09;;;24.12
64600;BMP280;6553;48.412;9.514;2023-09-18T06:59:19;72119.16;;;24.10
64600;BMP280;6553;48.412;9.514;2023-09-18T07:01:45;72121.28;;;24.12
64600;BMP280;6553;48.412;9.514;2023-09-18T07:04:11;72121.28;;;24.12
64600;BMP280;6553;48.412;9.514;2023-09-18T07:06:37;72120.22;;;24.11
64600;BMP280;6553;48.412;9.514;2023-09-18T07:09:03;72126.88;;;24.12
64600;BMP280;6553;48.412;9.514;2023-09-18T07:11:33;72118.63;;;24.10
64600;BMP280;6553;48.412;9.514;2023-09-18T07:13:59;72120.22;;;24.11
64600;BMP280;6553;48.412;9.514;2023-09-18T07:16:25;72118.63;;;24.10
64600;BMP280;6553;48.412;9.514;2023-09-18T07:18:51;72117.56;;;24.09
64600;BMP280;6553;48.412;9.514;2023-09-18T07:21:17;72121.28;;;24.12
64600;BMP280;6553;48.412;9.514;2023-09-18T07:23:42;72117.44;;;24.11
64600;BMP280;6553;48.412;9.514;2023-09-18T07:26:09;72122.88;;;24.14
64600;BMP280;6553;48.412;9.514;2023-09-18T07:28:35;72120.63;;;24.14
64600;BMP280;6553;48.412;9.514;2023-09-18T07:31:08;72123.94;;;24.15
64600;BMP280;6553;48.412;9.514;2023-09-18T07:33:35;72126.22;;;24.14
64600;BMP280;6553;48.412;9.514;2023-09-18T07:36:01;72120.75;;;24.12
64600;BMP280;6553;48.412;9.514;2023-09-18T07:38:26;72122.34;;;24.13
64600;BMP280;6553;48.412;9.514;2023-09-18T07:40:52;72124.63;;;24.13
64600;BMP280;6553;48.412;9.514;2023-09-18T07:43:18;72122.88;;;24.14
64600;BMP280;6553;48.412;9.514;2023-09-18T07:45:44;72114.63;;;24.11
64600;BMP280;6553;48.412;9.514;2023-09-18T07:48:09;72121.84;;;24.13
64600;BMP280;6553;48.412;9.514;2023-09-18T07:50:35;72124.63;;;24.13
64600;BMP280;6553;48.412;9.514;2023-09-18T07:53:02;72122.34;;;24.13
64600;BMP280;6553;48.412;9.514;2023-09-18T07:55:28;72124.63;;;24.13
64600;BMP280;6553;48.412;9.514;2023-09-18T07:57:55;72122.34;;;24.13
64600;BMP280;6553;48.412;9.514;2023-09-18T08:00:21;72123.44;;;24.14
64600;BMP280;6553;48.412;9.514;2023-09-18T08:02:49;72127.16;;;24.18
64600;BMP280;6553;48.412;9.514;2023-09-18T08:05:16;72125.53;;;24.16
64600;BMP280;6553;48.412;9.514;2023-09-18T08:07:43;72125.53;;;24.16
64600;BMP280;6553;48.412;9.514;2023-09-18T08:10:09;72127.94;;;24.13
64600;BMP280;6553;48.412;9.514;2023-09-18T08:12:35;72125.00;;;24.16
64600;BMP280;6553;48.412;9.514;2023-09-18T08:15:01;72125.69;;;24.14
64600;BMP280;6553;48.412;9.514;2023-09-18T08:17:28;72123.94;;;24.15
64600;BMP280;6553;48.412;9.514;2023-09-18T08:19:54;72121.28;;;24.12
64600;BMP280;6553;48.412;9.514;2023-09-18T08:22:21;72129.41;;;24.17
64600;BMP280;6553;48.412;9.514;2023-09-18T08:24:48;72126.22;;;24.14
64600;BMP280;6553;48.412;9.514;2023-09-18T08:27:17;72123.44;;;24.14
64600;BMP280;6553;48.412;9.514;2023-09-18T08:29:43;72122.88;;;24.14
64600;BMP280;6553;48.412;9.514;2023-09-18T08:32:09;72123.94;;;24.15
64600;BMP280;6553;48.412;9.514;2023-09-18T08:34:35;72127.25;;;24.15
64600;BMP280;6553;48.412;9.514;2023-09-18T08:37:02;72126.22;;;24.14
64600;BMP280;6553;48.412;9.514;2023-09-18T08:39:28;72121.84;;;24.13
64600;BMP280;6553;48.412;9.514;2023-09-18T08:42:03;72120.63;;;24.14
64600;BMP280;6553;48.412;9.514;2023-09-18T08:44:30;72122.88;;;24.14
64600;BMP280;6553;48.412;9.514;2023-09-18T08:46:56;72122.88;;;24.14
64600;BMP280;6553;48.412;9.514;2023-09-18T08:49:23;72122.88;;;24.14
64600;BMP280;6553;48.412;9.514;2023-09-18T08:51:55;72120.09;;;24.14
64600;BMP280;6553;48.412;9.514;2023-09-18T08:54:24;72120.63;;;24.14
64600;BMP280;6553;48.412;9.514;2023-09-18T08:56:52;72125.00;;;24.16
64600;BMP280;6553;48.412;9.514;2023-09-18T08:59:25;72118.63;;;24.10
64600;BMP280;6553;48.412;9.514;2023-09-18T09:01:53;72115.97;;;24.07
64600;BMP280;6553;48.412;9.514;2023-09-18T09:04:19;72121.28;;;24.12
64600;BMP280;6553;48.412;9.514;2023-09-18T09:06:44;72120.09;;;24.14
64600;BMP280;6553;48.412;9.514;2023-09-18T09:09:10;72125.13;;;24.13
64600;BMP280;6553;48.412;9.514;2023-09-18T09:11:39;72128.31;;;24.16
64600;BMP280;6553;48.412;9.514;2023-09-18T09:14:13;72126.59;;;24.17
64600;BMP280;6553;48.412;9.514;2023-09-18T09:16:51;72126.72;;;24.15
64600;BMP280;6553;48.412;9.514;2023-09-18T09:19:18;72121.84;;;24.13
64600;BMP280;6553;48.412;9.514;2023-09-18T09:21:45;72123.00;;;24.11
64600;BMP280;6553;48.412;9.514;2023-09-18T09:24:12;72120.47;;;24.06
64600;BMP280;6553;48.412;9.514;2023-09-18T09:26:41;72125.13;;;24.13
64600;BMP280;6553;48.412;9.514;2023-09-18T09:29:17;72122.34;;;24.13
64600;BMP280;6553;48.412;9.514;2023-09-18T09:31:44;72123.94;;;24.15
64600;BMP280;6553;48.412;9.514;2023-09-18T09:34:11;72126.22;;;24.14
64600;BMP280;6553;48.412;9.514;2023-09-18T09:36:54;72123.94;;;24.15
64600;BMP280;6553;48.412;9.514;2023-09-18T09:39:21;72124.47;;;24.15
64600;BMP280;6553;48.412;9.514;2023-09-18T09:41:52;72125.13;;;24.13
64600;BMP280;6553;48.412;9.514;2023-09-18T09:44:18;72126.22;;;24.14
64600;BMP280;6553;48.412;9.514;2023-09-18T09:46:49;72127.25;;;24.15
64600;BMP280;6553;48.412;9.514;2023-09-18T09:49:15;72127.94;;;24.13
64600;BMP280;6553;48.412;9.514;2023-09-18T09:51:42;72119.69;;;24.11
64600;BMP280;6553;48.412;9.514;2023-09-18T09:54:08;72126.22;;;24.14
64600;BMP280;6553;48.412;9.514;2023-09-18T09:56:43;72130.06;;;24.15
64600;BMP280;6553;48.412;9.514;2023-09-18T09:59:12;72125.78;;;24.11
64600;BMP280;6553;48.412;9.514;2023-09-18T10:01:39;72125.69;;;24.14
64600;BMP280;6553;48.412;9.514;2023-09-18T10:04:12;72126.22;;;24.14
64600;BMP280;6553;48.412;9.514;2023-09-18T10:06:43;72124.47;;;24.15
64600;BMP280;6553;48.412;9.514;2023-09-18T10:09:12;72126.22;;;24.14
64600;BMP280;6553;48.412;9.514;2023-09-18T10:11:43;72128.47;;;24.14
64600;BMP280;6553;48.412;9.514;2023-09-18T10:14:19;72123.94;;;24.15
64600;BMP280;6553;48.412;9.514;2023-09-18T10:16:50;72119.44;;;24.16
64600;BMP280;6553;48.412;9.514;2023-09-18T10:19:32;72126.22;;;24.14
64600;BMP280;6553;48.412;9.514;2023-09-18T10:24:54;72121.84;;;24.13
64600;BMP280;6553;48.412;9.514;2023-09-18T10:27:26;72119.56;;;24.13
64600;BMP280;6553;48.412;9.514;2023-09-18T10:29:54;72119.03;;;24.13
64600;BMP280;6553;48.412;9.514;2023-09-18T10:32:21;72120.22;;;24.11
64600;BMP280;6553;48.412;9.514;2023-09-18T10:34:48;72121.84;;;24.13
64600;BMP280;6553;48.412;9.514;2023-09-18T10:37:15;72119.56;;;24.13
64600;BMP280;6553;48.412;9.514;2023-09-18T10:39:42;72127.94;;;24.13
64600;BMP280;6553;48.412;9.514;2023-09-18T10:42:12;72122.34;;;24.13
64600;BMP280;6553;48.412;9.514;2023-09-18T10:44:38;72119.16;;;24.10
64600;BMP280;6553;48.412;9.514;2023-09-18T10:47:09;72121.84;;;24.13
64600;BMP280;6553;48.412;9.514;2023-09-18T10:49:36;72118.50;;;24.12
64600;BMP280;6553;48.412;9.514;2023-09-18T10:52:02;72120.75;;;24.12
64600;BMP280;6553;48.412;9.514;2023-09-18T10:54:31;72117.03;;;24.08
64600;BMP280;6553;48.412;9.514;2023-09-18T10:56:57;72124.63;;;24.13
64600;BMP280;6553;48.412;9.514;2023-09-18T10:59:24;72122.50;;;24.11
64600;BMP280;6553;48.412;9.514;2023-09-18T11:01:50;72123.00;;;24.11
64600;BMP280;6553;48.412;9.514;2023-09-18T11:04:20;72126.34;;;24.12
64600;BMP280;6553;48.412;9.514;2023-09-18T11:09:26;72119.69;;;24.11
64600;BMP280;6553;48.412;9.514;2023-09-18T11:14:58;72116.50;;;24.08
64600;BMP280;6553;48.412;9.514;2023-09-18T11:22:39;72119.69;;;24.11
64600;BMP280;6553;48.412;9.514;2023-09-18T11:28:22;72116.38;;;24.10
64600;BMP280;6553;48.412;9.514;2023-09-18T11:30:57;72120.22;;;24.11
64600;BMP280;6553;48.412;9.514;2023-09-18T11:33:33;72120.22;;;24.11
64600;BMP280;6553;48.412;9.514;2023-09-18T11:36:09;72118.63;;;24.10
64600;BMP280;6553;48.412;9.514;2023-09-18T11:38:56;72120.34;;;24.09
64600;BMP280;6553;48.412;9.514;2023-09-18T11:41:25;72115.84;;;24.10
64600;BMP280;6553;48.412;9.514;2023-09-18T11:44:05;72121.28;;;24.12
64600;BMP280;6553;48.412;9.514;2023-09-18T11:46:51;72121.94;;;24.10
64600;BMP280;6553;48.412;9.514;2023-09-18T11:49:22;72119.16;;;24.10
64600;BMP280;6553;48.412;9.514;2023-09-18T11:51:50;72115.28;;;24.09
64600;BMP280;6553;48.412;9.514;2023-09-18T11:54:17;72117.03;;;24.08
64600;BMP280;6553;48.412;9.514;2023-09-18T11:56:44;72118.63;;;24.10
64600;BMP280;6553;48.412;9.514;2023-09-18T11:59:10;72117.56;;;24.09
64600;BMP280;6553;48.412;9.514;2023-09-18T12:01:37;72116.63;;;24.05
64600;BMP280;6553;48.412;9.514;2023-09-18T12:04:06;72117.56;;;24.09
64600;BMP280;6553;48.412;9.514;2023-09-18T12:06:39;72117.16;;;24.06
64600;BMP280;6553;48.412;9.514;2023-09-18T12:09:07;72114.25;;;24.08
64600;BMP280;6553;48.412;9.514;2023-09-18T12:11:33;72114.91;;;24.06
64600;BMP280;6553;48.412;9.514;2023-09-18T12:14:02;72116.63;;;24.05
64600;BMP280;6553;48.412;9.514;2023-09-18T12:16:37;72119.28;;;24.08
64600;BMP280;6553;48.412;9.514;2023-09-18T12:19:04;72112.13;;;24.06
64600;BMP280;6553;48.412;9.514;2023-09-18T12:21:33;72115.44;;;24.07
64600;BMP280;6553;48.412;9.514;2023-09-18T12:23:58;72118.75;;;24.07
64600;BMP280;6553;48.412;9.514;2023-09-18T12:26:25;72119.28;;;24.08
64600;BMP280;6553;48.412;9.514;2023-09-18T12:28:51;72116.63;;;24.05
64600;BMP280;6553;48.412;9.514;2023-09-18T12:31:17;72119.81;;;24.08
64600;BMP280;6553;48.412;9.514;2023-09-18T12:33:44;72116.38;;;24.10
64600;BMP280;6553;48.412;9.514;2023-09-18T12:36:10;72114.38;;;24.06
64600;BMP280;6553;48.412;9.514;2023-09-18T12:38:37;72114.91;;;24.06
64600;BMP280;6553;48.412;9.514;2023-09-18T12:41:04;72122.06;;;24.08
64600;BMP280;6553;48.412;9.514;2023-09-18T12:43:41;72117.56;;;24.09
64600;BMP280;6553;48.412;9.514;2023-09-18T12:46:09;72118.75;;;24.07
64600;BMP280;6553;48.412;9.514;2023-09-18T12:48:41;72115.28;;;24.09
64600;BMP280;6553;48.412;9.514;2023-09-18T12:51:12;72119.16;;;24.10
64600;BMP280;6553;48.412;9.514;2023-09-18T12:53:40;72116.38;;;24.10
64600;BMP280;6553;48.412;9.514;2023-09-18T12:56:10;72125.28;;;24.11
64600;BMP280;6553;48.412;9.514;2023-09-18T12:58:41;72113.59;;;24.10
64600;BMP280;6553;48.412;9.514;2023-09-18T13:01:10;72118.09;;;24.09
64600;BMP280;6553;48.412;9.514;2023-09-18T13:03:46;72119.81;;;24.08
64600;BMP280;6553;48.412;9.514;2023-09-18T13:06:18;72113.19;;;24.07
64600;BMP280;6553;48.412;9.514;2023-09-18T13:08:45;72118.63;;;24.10
64600;BMP280;6553;48.412;9.514;2023-09-18T13:11:11;72120.88;;;24.09
64600;BMP280;6553;48.412;9.514;2023-09-18T13:13:40;72121.00;;;24.07
64600;BMP280;6553;48.412;9.514;2023-09-18T13:16:08;72120.75;;;24.12
64600;BMP280;6553;48.412;9.514;2023-09-18T13:18:37;72121.28;;;24.12
64600;BMP280;6553;48.412;9.514;2023-09-18T13:21:11;72120.88;;;24.09
64600;BMP280;6553;48.412;9.514;2023-09-18T13:23:37;72119.03;;;24.13
64600;BMP280;6553;48.412;9.514;2023-09-18T13:26:06;72120.09;;;24.14
64600;BMP280;6553;48.412;9.514;2023-09-18T13:28:34;72119.56;;;24.13
64600;BMP280;6553;48.412;9.514;2023-09-18T13:31:05;72124.09;;;24.12
64600;BMP280;6553;48.412;9.514;2023-09-18T13:33:33;72125.13;;;24.13
64600;BMP280;6553;48.412;9.514;2023-09-18T13:36:03;72120.75;;;24.12
64600;BMP280;6553;48.412;9.514;2023-09-18T13:38:29;72125.13;;;24.13
64600;BMP280;6553;48.412;9.514;2023-09-18T13:40:54;72119.56;;;24.13
64600;BMP280;6553;48.412;9.514;2023-09-18T13:43:21;72123.44;;;24.14
64600;BMP280;6553;48.412;9.514;2023-09-18T13:45:48;72115.84;;;24.10
64600;BMP280;6553;48.412;9.514;2023-09-18T13:48:18;72127.94;;;24.13
64600;BMP280;6553;48.412;9.514;2023-09-18T13:50:44;72124.09;;;24.12
64600;BMP280;6553;48.412;9.514;2023-09-18T13:53:11;72124.47;;;24.15
64600;BMP280;6553;48.412;9.514;2023-09-18T13:55:37;72122.34;;;24.13
64600;BMP280;6553;48.412;9.514;2023-09-18T13:58:03;72131.25;;;24.14
64600;BMP280;6553;48.412;9.514;2023-09-18T14:00:29;72127.25;;;24.15
64600;BMP280;6553;48.412;9.514;2023-09-18T14:02:55;72122.75;;;24.16
64600;BMP280;6553;48.412;9.514;2023-09-18T14:05:21;72123.94;;;24.15
64600;BMP280;6553;48.412;9.514;2023-09-18T14:07:47;72125.69;;;24.14
64600;BMP280;6553;48.412;9.514;2023-09-18T14:10:14;72127.81;;;24.16
64600;BMP280;6553;48.412;9.514;2023-09-18T14:12:42;72128.19;;;24.19
64600;BMP280;6553;48.412;9.514;2023-09-18T14:15:09;72144.69;;;24.34
64600;BMP280;6553;48.412;9.514;2023-09-18T14:17:36;72152.66;;;24.42
64600;BMP280;6553;48.412;9.514;2023-09-18T14:20:03;72152.13;;;24.41
64600;BMP280;6553;48.412;9.514;2023-09-18T14:22:35;72156.94;;;24.46
64600;BMP280;6553;48.412;9.514;2023-09-18T14:25:01;72147.88;;;24.37
64600;BMP280;6553;48.412;9.514;2023-09-18T14:27:31;72138.81;;;24.29
64600;BMP280;6553;48.412;9.514;2023-09-18T14:29:57;72135.09;;;24.25
64600;BMP280;6553;48.412;9.514;2023-09-18T14:32:22;72131.91;;;24.22
64600;BMP280;6553;48.412;9.514;2023-09-18T14:34:48;72129.13;;;24.22
64600;BMP280;6553;48.412;9.514;2023-09-18T14:37:14;72130.88;;;24.21
64600;BMP280;6553;48.412;9.514;2023-09-18T14:39:39;72128.59;;;24.22
64600;BMP280;6553;48.412;9.514;2023-09-18T14:42:05;72132.06;;;24.20